PWSweather.com
Personal Weather Stations
Station Observations
JOE4SPEED
Jupiter, Fl, Jupiter, FL 33458

Jupiter, FlJupiter, FL 33458

Lat: 26.9373, Lon: -80.1101

Elevation: 12

Station Type: Davis VP 2

http://www.joe4speed.com/wxindex.php

High Low Average
Temperature 93.2°F34.0°C 73.0°F22.8°C 82.4°F28.0°C
Dew Point 77.9°F25.5°C 70.5°F21.4°C 73.7°F23.2°C
Winds 9.6 mph 15.4 kmh Calm Calm 3.0 mph SSW4.8 kmh SSW
Wind Gusts 15.0 mph24.1 kmh -- 5.0 mph8.0 kmh
Humidity 92% 51% 77%
Pressure 30.15 in1021.0 mb 30.06 in1017.9 mb -
Precipitation 0.00 in0.0 mm - -
Hour Temp Dew Point Humidity Winds Wind Gusts Pressure Precip Precip Rate Daily Precip Total
12:00 AM 74.7°F23.7°C 71.9°F22.2°C 91% 0.7 mph SSW1.1 kmh SSW 1.0 mph1.6 kmh 30.11 in1019.6 mb - 0.00 in0.0 mm 0.00 in0.0 mm
12:10 AM 74.8°F23.8°C 72.0°F22.2°C 91% 1.1 mph SSW1.8 kmh SSW 1.0 mph1.6 kmh 30.10 in1019.3 mb - 0.00 in0.0 mm 0.00 in0.0 mm
12:20 AM 74.9°F23.8°C 72.4°F22.4°C 92% 1.4 mph SSW2.3 kmh SSW 2.0 mph3.2 kmh 30.10 in1019.3 mb - 0.00 in0.0 mm 0.00 in0.0 mm
12:30 AM 74.9°F23.8°C 72.5°F22.5°C 92% 1.9 mph SSW3.1 kmh SSW 3.0 mph4.8 kmh 30.09 in1019.0 mb - 0.00 in0.0 mm 0.00 in0.0 mm
12:40 AM 75.0°F23.9°C 72.5°F22.5°C 92% 1.8 mph S2.9 kmh S 3.0 mph4.8 kmh 30.09 in1019.0 mb - 0.00 in0.0 mm 0.00 in0.0 mm
12:50 AM 75.0°F23.9°C 72.5°F22.5°C 92% 1.4 mph SW2.3 kmh SW 3.0 mph4.8 kmh 30.09 in1019.0 mb - 0.00 in0.0 mm 0.00 in0.0 mm
01:00 AM 74.9°F23.8°C 72.4°F22.4°C 92% 0.1 mph SSW0.2 kmh SSW 1.0 mph1.6 kmh 30.09 in1019.0 mb - 0.00 in0.0 mm 0.00 in0.0 mm
01:10 AM 74.9°F23.8°C 72.4°F22.4°C 92% 1.5 mph SSW2.4 kmh SSW 4.0 mph6.4 kmh 30.09 in1019.0 mb - 0.00 in0.0 mm 0.00 in0.0 mm
01:20 AM 74.7°F23.7°C 72.2°F22.3°C 92% 3.4 mph SSW5.5 kmh SSW 5.0 mph8.0 kmh 30.09 in1019.0 mb - 0.00 in0.0 mm 0.00 in0.0 mm
01:30 AM 74.5°F23.6°C 72.0°F22.2°C 92% 1.9 mph SW3.1 kmh SW 4.0 mph6.4 kmh 30.09 in1019.0 mb - 0.00 in0.0 mm 0.00 in0.0 mm
01:40 AM 74.2°F23.4°C 71.8°F22.1°C 92% 0.3 mph SW0.5 kmh SW 1.0 mph1.6 kmh 30.08 in1018.6 mb - 0.00 in0.0 mm 0.00 in0.0 mm
01:50 AM 74.0°F23.3°C 71.6°F22.0°C 92% 0.5 mph SW0.8 kmh SW 1.0 mph1.6 kmh 30.09 in1019.0 mb - 0.00 in0.0 mm 0.00 in0.0 mm
02:00 AM 74.0°F23.3°C 71.5°F21.9°C 92% Calm Calm -- 30.08 in1018.6 mb - 0.00 in0.0 mm 0.00 in0.0 mm
02:10 AM 74.0°F23.3°C 71.5°F21.9°C 92% Calm Calm -- 30.08 in1018.6 mb - 0.00 in0.0 mm 0.00 in0.0 mm
02:20 AM 73.9°F23.3°C 71.4°F21.9°C 92% Calm Calm -- 30.08 in1018.6 mb - 0.00 in0.0 mm 0.00 in0.0 mm
02:30 AM 73.9°F23.3°C 71.4°F21.9°C 92% Calm Calm 1.0 mph1.6 kmh 30.08 in1018.6 mb - 0.00 in0.0 mm 0.00 in0.0 mm
02:40 AM 73.9°F23.3°C 71.4°F21.9°C 92% 0.2 mph SW0.3 kmh SW 1.0 mph1.6 kmh 30.08 in1018.6 mb - 0.00 in0.0 mm 0.00 in0.0 mm
02:50 AM 73.9°F23.3°C 71.4°F21.9°C 92% 0.1 mph SW0.2 kmh SW 1.0 mph1.6 kmh 30.08 in1018.6 mb - 0.00 in0.0 mm 0.00 in0.0 mm
03:00 AM 73.9°F23.3°C 71.4°F21.9°C 92% 1.1 mph SW1.8 kmh SW 2.0 mph3.2 kmh 30.08 in1018.6 mb - 0.00 in0.0 mm 0.00 in0.0 mm
03:10 AM 73.9°F23.3°C 71.4°F21.9°C 92% 0.2 mph SW0.3 kmh SW -- 30.07 in1018.3 mb - 0.00 in0.0 mm 0.00 in0.0 mm
03:20 AM 73.8°F23.2°C 71.3°F21.8°C 92% 0.1 mph SW0.2 kmh SW 1.0 mph1.6 kmh 30.08 in1018.6 mb - 0.00 in0.0 mm 0.00 in0.0 mm
03:30 AM 73.7°F23.2°C 71.2°F21.8°C 92% 0.7 mph SW1.1 kmh SW 2.0 mph3.2 kmh 30.08 in1018.6 mb - 0.00 in0.0 mm 0.00 in0.0 mm
03:40 AM 73.7°F23.2°C 71.2°F21.8°C 92% 0.1 mph SW0.2 kmh SW 1.0 mph1.6 kmh 30.08 in1018.6 mb - 0.00 in0.0 mm 0.00 in0.0 mm
03:50 AM 73.7°F23.2°C 71.2°F21.8°C 92% Calm Calm 1.0 mph1.6 kmh 30.09 in1019.0 mb - 0.00 in0.0 mm 0.00 in0.0 mm
04:00 AM 73.6°F23.1°C 71.1°F21.7°C 92% 0.2 mph SW0.3 kmh SW 1.0 mph1.6 kmh 30.08 in1018.6 mb - 0.00 in0.0 mm 0.00 in0.0 mm
04:10 AM 73.5°F23.1°C 71.0°F21.7°C 92% 0.5 mph SW0.8 kmh SW 1.0 mph1.6 kmh 30.09 in1019.0 mb - 0.00 in0.0 mm 0.00 in0.0 mm
04:20 AM 73.5°F23.1°C 71.0°F21.7°C 92% Calm Calm -- 30.08 in1018.6 mb - 0.00 in0.0 mm 0.00 in0.0 mm
04:30 AM 73.4°F23.0°C 70.9°F21.6°C 92% Calm Calm 1.0 mph1.6 kmh 30.09 in1019.0 mb - 0.00 in0.0 mm 0.00 in0.0 mm
04:40 AM 73.4°F23.0°C 70.9°F21.6°C 92% Calm Calm -- 30.09 in1019.0 mb - 0.00 in0.0 mm 0.00 in0.0 mm
04:50 AM 73.2°F22.9°C 70.7°F21.5°C 92% Calm Calm -- 30.09 in1019.0 mb - 0.00 in0.0 mm 0.00 in0.0 mm
05:00 AM 73.2°F22.9°C 70.7°F21.5°C 92% Calm Calm -- 30.09 in1019.0 mb - 0.00 in0.0 mm 0.00 in0.0 mm
05:10 AM 73.1°F22.8°C 70.6°F21.4°C 92% Calm Calm -- 30.09 in1019.0 mb - 0.00 in0.0 mm 0.00 in0.0 mm
05:20 AM 73.0°F22.8°C 70.5°F21.4°C 92% Calm Calm -- 30.09 in1019.0 mb - 0.00 in0.0 mm 0.00 in0.0 mm
05:30 AM 73.2°F22.9°C 70.7°F21.5°C 92% 0.6 mph SW1.0 kmh SW 1.0 mph1.6 kmh 30.10 in1019.3 mb - 0.00 in0.0 mm 0.00 in0.0 mm
05:40 AM 73.2°F22.9°C 70.7°F21.5°C 92% 1.1 mph SW1.8 kmh SW 2.0 mph3.2 kmh 30.10 in1019.3 mb - 0.00 in0.0 mm 0.00 in0.0 mm
05:50 AM 73.1°F22.8°C 70.6°F21.4°C 92% Calm Calm -- 30.10 in1019.3 mb - 0.00 in0.0 mm 0.00 in0.0 mm
06:00 AM 73.0°F22.8°C 70.5°F21.4°C 92% Calm Calm -- 30.11 in1019.6 mb - 0.00 in0.0 mm 0.00 in0.0 mm
06:10 AM 73.0°F22.8°C 70.6°F21.4°C 92% 1.2 mph SSW1.9 kmh SSW 2.0 mph3.2 kmh 30.10 in1019.3 mb - 0.00 in0.0 mm 0.00 in0.0 mm
06:20 AM 73.0°F22.8°C 70.5°F21.4°C 92% Calm Calm -- 30.10 in1019.3 mb - 0.00 in0.0 mm 0.00 in0.0 mm
06:30 AM 73.0°F22.8°C 70.5°F21.4°C 92% Calm Calm -- 30.11 in1019.6 mb - 0.00 in0.0 mm 0.00 in0.0 mm
06:40 AM 73.1°F22.8°C 70.6°F21.4°C 92% Calm Calm -- 30.10 in1019.3 mb - 0.00 in0.0 mm 0.00 in0.0 mm
06:50 AM 73.3°F22.9°C 70.8°F21.6°C 92% 0.2 mph SSW0.3 kmh SSW -- 30.11 in1019.6 mb - 0.00 in0.0 mm 0.00 in0.0 mm
07:00 AM 73.4°F23.0°C 71.0°F21.7°C 92% 0.6 mph WSW1.0 kmh WSW 1.0 mph1.6 kmh 30.11 in1019.6 mb - 0.00 in0.0 mm 0.00 in0.0 mm
07:10 AM 73.7°F23.2°C 71.3°F21.8°C 92% 2.4 mph NW3.9 kmh NW 5.0 mph8.0 kmh 30.11 in1019.6 mb - 0.00 in0.0 mm 0.00 in0.0 mm
07:20 AM 74.1°F23.4°C 71.6°F22.0°C 92% 1.0 mph WNW1.6 kmh WNW 1.0 mph1.6 kmh 30.11 in1019.6 mb - 0.00 in0.0 mm 0.00 in0.0 mm
07:30 AM 74.4°F23.6°C 71.9°F22.2°C 92% 0.2 mph WNW0.3 kmh WNW 1.0 mph1.6 kmh 30.11 in1019.6 mb - 0.00 in0.0 mm 0.00 in0.0 mm
07:40 AM 74.8°F23.8°C 72.3°F22.4°C 92% 0.7 mph NW1.1 kmh NW 1.0 mph1.6 kmh 30.12 in1020.0 mb - 0.00 in0.0 mm 0.00 in0.0 mm
07:50 AM 75.0°F23.9°C 72.5°F22.5°C 92% 1.0 mph NW1.6 kmh NW 4.0 mph6.4 kmh 30.12 in1020.0 mb - 0.00 in0.0 mm 0.00 in0.0 mm
08:00 AM 75.3°F24.1°C 72.8°F22.7°C 92% Calm Calm -- 30.12 in1020.0 mb - 0.00 in0.0 mm 0.00 in0.0 mm
08:10 AM 75.5°F24.2°C 73.0°F22.8°C 92% 0.6 mph NW1.0 kmh NW 1.0 mph1.6 kmh 30.13 in1020.3 mb - 0.00 in0.0 mm 0.00 in0.0 mm
08:20 AM 75.7°F24.3°C 73.2°F22.9°C 92% Calm Calm 1.0 mph1.6 kmh 30.13 in1020.3 mb - 0.00 in0.0 mm 0.00 in0.0 mm
08:30 AM 76.3°F24.6°C 73.8°F23.2°C 92% 0.5 mph WNW0.8 kmh WNW 1.0 mph1.6 kmh 30.14 in1020.7 mb - 0.00 in0.0 mm 0.00 in0.0 mm
08:40 AM 77.1°F25.1°C 74.6°F23.7°C 92% 0.3 mph WNW0.5 kmh WNW 1.0 mph1.6 kmh 30.14 in1020.7 mb - 0.00 in0.0 mm 0.00 in0.0 mm
08:50 AM 77.9°F25.5°C 75.1°F23.9°C 91% Calm Calm 4.0 mph6.4 kmh 30.15 in1021.0 mb - 0.00 in0.0 mm 0.00 in0.0 mm
09:00 AM 78.4°F25.8°C 75.3°F24.1°C 90% Calm Calm -- 30.15 in1021.0 mb - 0.00 in0.0 mm 0.00 in0.0 mm
09:10 AM 79.6°F26.4°C 75.8°F24.3°C 88% 0.1 mph WNW0.2 kmh WNW 2.0 mph3.2 kmh 30.15 in1021.0 mb - 0.00 in0.0 mm 0.00 in0.0 mm
09:20 AM 80.9°F27.2°C 75.9°F24.4°C 85% 1.5 mph W2.4 kmh W 4.0 mph6.4 kmh 30.15 in1021.0 mb - 0.00 in0.0 mm 0.00 in0.0 mm
09:30 AM 82.2°F27.9°C 76.6°F24.8°C 83% 3.7 mph WNW6.0 kmh WNW 6.0 mph9.7 kmh 30.15 in1021.0 mb - 0.00 in0.0 mm 0.00 in0.0 mm
09:40 AM 83.2°F28.4°C 76.0°F24.4°C 79% 1.9 mph NW3.1 kmh NW 4.0 mph6.4 kmh 30.14 in1020.7 mb - 0.00 in0.0 mm 0.00 in0.0 mm
09:50 AM 84.1°F28.9°C 76.5°F24.7°C 78% 2.4 mph WNW3.9 kmh WNW 4.0 mph6.4 kmh 30.14 in1020.7 mb - 0.00 in0.0 mm 0.00 in0.0 mm
10:00 AM 85.0°F29.4°C 77.4°F25.2°C 78% 2.3 mph NW3.7 kmh NW 4.0 mph6.4 kmh 30.14 in1020.7 mb - 0.00 in0.0 mm 0.00 in0.0 mm
10:10 AM 86.1°F30.1°C 77.7°F25.4°C 76% 1.9 mph NW3.1 kmh NW 5.0 mph8.0 kmh 30.14 in1020.7 mb - 0.00 in0.0 mm 0.00 in0.0 mm
10:20 AM 87.2°F30.7°C 77.9°F25.5°C 74% 4.2 mph NW6.8 kmh NW 7.0 mph11.3 kmh 30.14 in1020.7 mb - 0.00 in0.0 mm 0.00 in0.0 mm
10:30 AM 87.7°F30.9°C 77.5°F25.3°C 72% 2.5 mph WSW4.0 kmh WSW 4.0 mph6.4 kmh 30.14 in1020.7 mb - 0.00 in0.0 mm 0.00 in0.0 mm
10:40 AM 88.3°F31.3°C 76.9°F24.9°C 69% Calm Calm 7.0 mph11.3 kmh 30.13 in1020.3 mb - 0.00 in0.0 mm 0.00 in0.0 mm
10:50 AM 88.9°F31.6°C 76.1°F24.5°C 66% 1.9 mph NW3.1 kmh NW 4.0 mph6.4 kmh 30.13 in1020.3 mb - 0.00 in0.0 mm 0.00 in0.0 mm
11:00 AM 88.9°F31.6°C 76.5°F24.7°C 67% Calm Calm -- 30.13 in1020.3 mb - 0.00 in0.0 mm 0.00 in0.0 mm
11:10 AM 89.1°F31.7°C 76.3°F24.6°C 66% 2.8 mph NNW4.5 kmh NNW 4.0 mph6.4 kmh 30.13 in1020.3 mb - 0.00 in0.0 mm 0.00 in0.0 mm
11:20 AM 90.1°F32.3°C 75.8°F24.3°C 63% 4.5 mph WNW7.2 kmh WNW 5.0 mph8.0 kmh 30.13 in1020.3 mb - 0.00 in0.0 mm 0.00 in0.0 mm
11:30 AM 90.2°F32.3°C 75.4°F24.1°C 62% 1.3 mph WSW2.1 kmh WSW 6.0 mph9.7 kmh 30.13 in1020.3 mb - 0.00 in0.0 mm 0.00 in0.0 mm
11:40 AM 90.6°F32.6°C 73.8°F23.2°C 58% 0.4 mph WNW0.6 kmh WNW 4.0 mph6.4 kmh 30.13 in1020.3 mb - 0.00 in0.0 mm 0.00 in0.0 mm
11:50 AM 91.1°F32.8°C 74.8°F23.8°C 59% 4.0 mph WNW6.4 kmh WNW 8.0 mph12.9 kmh 30.12 in1020.0 mb - 0.00 in0.0 mm 0.00 in0.0 mm
12:00 PM 91.9°F33.3°C 73.9°F23.3°C 56% Calm Calm -- 30.12 in1020.0 mb - 0.00 in0.0 mm 0.00 in0.0 mm
12:10 PM 91.3°F32.9°C 73.4°F23.0°C 56% Calm Calm -- 30.12 in1020.0 mb - 0.00 in0.0 mm 0.00 in0.0 mm
12:20 PM 92.7°F33.7°C 74.7°F23.7°C 56% 3.1 mph NW5.0 kmh NW 9.0 mph14.5 kmh 30.12 in1020.0 mb - 0.00 in0.0 mm 0.00 in0.0 mm
12:30 PM 93.2°F34.0°C 74.6°F23.7°C 55% 0.9 mph NW1.4 kmh NW 6.0 mph9.7 kmh 30.12 in1020.0 mb - 0.00 in0.0 mm 0.00 in0.0 mm
12:40 PM 93.2°F34.0°C 72.3°F22.4°C 51% 1.9 mph N3.1 kmh N 5.0 mph8.0 kmh 30.12 in1020.0 mb - 0.00 in0.0 mm 0.00 in0.0 mm
12:50 PM 92.9°F33.8°C 76.5°F24.7°C 59% 3.1 mph NE5.0 kmh NE 4.0 mph6.4 kmh 30.12 in1020.0 mb - 0.00 in0.0 mm 0.00 in0.0 mm
01:00 PM 92.5°F33.6°C 75.5°F24.2°C 58% 5.8 mph ESE9.3 kmh ESE 10.0 mph16.1 kmh 30.12 in1020.0 mb - 0.00 in0.0 mm 0.00 in0.0 mm
01:10 PM 91.9°F33.3°C 75.0°F23.9°C 58% 5.0 mph ESE8.0 kmh ESE 10.0 mph16.1 kmh 30.12 in1020.0 mb - 0.00 in0.0 mm 0.00 in0.0 mm
01:20 PM 92.0°F33.3°C 74.1°F23.4°C 56% 3.9 mph E6.3 kmh E 6.0 mph9.7 kmh 30.12 in1020.0 mb - 0.00 in0.0 mm 0.00 in0.0 mm
01:30 PM 92.0°F33.3°C 74.0°F23.3°C 56% 3.0 mph NE4.8 kmh NE 6.0 mph9.7 kmh 30.12 in1020.0 mb - 0.00 in0.0 mm 0.00 in0.0 mm
01:40 PM 91.1°F32.8°C 73.7°F23.2°C 57% 2.6 mph ENE4.2 kmh ENE 5.0 mph8.0 kmh 30.12 in1020.0 mb - 0.00 in0.0 mm 0.00 in0.0 mm
01:50 PM 90.1°F32.3°C 73.8°F23.2°C 59% 3.2 mph SE5.1 kmh SE 6.0 mph9.7 kmh 30.11 in1019.6 mb - 0.00 in0.0 mm 0.00 in0.0 mm
02:00 PM 89.7°F32.1°C 74.0°F23.3°C 60% 0.9 mph NNE1.4 kmh NNE -- 30.11 in1019.6 mb - 0.00 in0.0 mm 0.00 in0.0 mm
02:10 PM 90.0°F32.2°C 73.7°F23.2°C 59% 3.7 mph NNE6.0 kmh NNE 7.0 mph11.3 kmh 30.11 in1019.6 mb - 0.00 in0.0 mm 0.00 in0.0 mm
02:20 PM 90.0°F32.2°C 74.2°F23.4°C 60% 2.9 mph SE4.7 kmh SE 6.0 mph9.7 kmh 30.11 in1019.6 mb - 0.00 in0.0 mm 0.00 in0.0 mm
02:30 PM 90.5°F32.5°C 74.2°F23.4°C 59% 0.9 mph E1.4 kmh E 8.0 mph12.9 kmh 30.11 in1019.6 mb - 0.00 in0.0 mm 0.00 in0.0 mm
02:40 PM 89.3°F31.8°C 73.6°F23.1°C 60% 3.3 mph ESE5.3 kmh ESE 7.0 mph11.3 kmh 30.10 in1019.3 mb - 0.00 in0.0 mm 0.00 in0.0 mm
02:50 PM 89.1°F31.7°C 72.9°F22.7°C 59% 3.7 mph ESE6.0 kmh ESE 5.0 mph8.0 kmh 30.10 in1019.3 mb - 0.00 in0.0 mm 0.00 in0.0 mm
03:00 PM 88.8°F31.6°C 73.6°F23.1°C 61% 4.9 mph ESE7.9 kmh ESE 7.0 mph11.3 kmh 30.09 in1019.0 mb - 0.00 in0.0 mm 0.00 in0.0 mm
03:10 PM 88.8°F31.6°C 74.6°F23.7°C 63% 6.0 mph E9.7 kmh E 9.0 mph14.5 kmh 30.09 in1019.0 mb - 0.00 in0.0 mm 0.00 in0.0 mm
03:20 PM 88.8°F31.6°C 74.1°F23.4°C 62% 5.6 mph ESE9.0 kmh ESE 10.0 mph16.1 kmh 30.09 in1019.0 mb - 0.00 in0.0 mm 0.00 in0.0 mm
03:30 PM 88.6°F31.4°C 73.4°F23.0°C 61% 5.6 mph E9.0 kmh E 12.0 mph19.3 kmh 30.09 in1019.0 mb - 0.00 in0.0 mm 0.00 in0.0 mm
03:40 PM 88.4°F31.3°C 74.2°F23.4°C 63% 6.4 mph E10.3 kmh E 9.0 mph14.5 kmh 30.08 in1018.6 mb - 0.00 in0.0 mm 0.00 in0.0 mm
03:50 PM 88.5°F31.4°C 74.8°F23.8°C 64% 4.2 mph ESE6.8 kmh ESE 8.0 mph12.9 kmh 30.08 in1018.6 mb - 0.00 in0.0 mm 0.00 in0.0 mm
04:00 PM 89.8°F32.1°C 75.5°F24.2°C 63% 6.0 mph SE9.7 kmh SE 11.0 mph17.7 kmh 30.07 in1018.3 mb - 0.00 in0.0 mm 0.00 in0.0 mm
04:10 PM 89.8°F32.1°C 75.1°F23.9°C 62% 6.4 mph ESE10.3 kmh ESE 10.0 mph16.1 kmh 30.08 in1018.6 mb - 0.00 in0.0 mm 0.00 in0.0 mm
04:20 PM 89.9°F32.2°C 75.1°F23.9°C 62% 7.8 mph SE12.6 kmh SE 13.0 mph20.9 kmh 30.08 in1018.6 mb - 0.00 in0.0 mm 0.00 in0.0 mm
04:30 PM 89.7°F32.1°C 74.4°F23.6°C 61% 7.3 mph SSE11.7 kmh SSE 13.0 mph20.9 kmh 30.07 in1018.3 mb - 0.00 in0.0 mm 0.00 in0.0 mm
04:40 PM 89.4°F31.9°C 74.6°F23.7°C 62% 9.4 mph E15.1 kmh E 10.0 mph16.1 kmh 30.07 in1018.3 mb - 0.00 in0.0 mm 0.00 in0.0 mm
04:50 PM 89.1°F31.7°C 74.9°F23.8°C 63% 9.6 mph SE15.4 kmh SE 13.0 mph20.9 kmh 30.07 in1018.3 mb - 0.00 in0.0 mm 0.00 in0.0 mm
05:00 PM 89.2°F31.8°C 75.4°F24.1°C 64% 7.3 mph SE11.7 kmh SE 13.0 mph20.9 kmh 30.07 in1018.3 mb - 0.00 in0.0 mm 0.00 in0.0 mm
05:10 PM 88.6°F31.4°C 76.3°F24.6°C 67% 7.4 mph ESE11.9 kmh ESE 11.0 mph17.7 kmh 30.06 in1017.9 mb - 0.00 in0.0 mm 0.00 in0.0 mm
05:20 PM 88.6°F31.4°C 76.2°F24.6°C 67% 7.9 mph SE12.7 kmh SE 15.0 mph24.1 kmh 30.06 in1017.9 mb - 0.00 in0.0 mm 0.00 in0.0 mm
05:30 PM 88.1°F31.2°C 75.8°F24.3°C 67% 8.5 mph SE13.7 kmh SE 12.0 mph19.3 kmh 30.07 in1018.3 mb - 0.00 in0.0 mm 0.00 in0.0 mm
05:40 PM 88.2°F31.2°C 76.3°F24.6°C 68% 6.4 mph SE10.3 kmh SE 9.0 mph14.5 kmh 30.08 in1018.6 mb - 0.00 in0.0 mm 0.00 in0.0 mm
05:50 PM 88.2°F31.2°C 75.4°F24.1°C 66% 6.4 mph SE10.3 kmh SE 7.0 mph11.3 kmh 30.08 in1018.6 mb - 0.00 in0.0 mm 0.00 in0.0 mm
06:00 PM 87.8°F31.0°C 75.1°F23.9°C 66% 6.9 mph SSE11.1 kmh SSE 9.0 mph14.5 kmh 30.08 in1018.6 mb - 0.00 in0.0 mm 0.00 in0.0 mm
06:10 PM 87.4°F30.8°C 76.4°F24.7°C 70% 6.2 mph SE10.0 kmh SE 10.0 mph16.1 kmh 30.09 in1019.0 mb - 0.00 in0.0 mm 0.00 in0.0 mm
06:20 PM 86.9°F30.5°C 75.9°F24.4°C 70% 6.1 mph SSE9.8 kmh SSE 12.0 mph19.3 kmh 30.09 in1019.0 mb - 0.00 in0.0 mm 0.00 in0.0 mm
06:30 PM 87.0°F30.6°C 76.5°F24.7°C 71% 7.1 mph SSE11.4 kmh SSE 12.0 mph19.3 kmh 30.09 in1019.0 mb - 0.00 in0.0 mm 0.00 in0.0 mm
06:40 PM 87.3°F30.7°C 76.7°F24.8°C 71% 6.5 mph SE10.5 kmh SE 11.0 mph17.7 kmh 30.09 in1019.0 mb - 0.00 in0.0 mm 0.00 in0.0 mm
06:50 PM 87.0°F30.6°C 76.5°F24.7°C 71% 5.2 mph SE8.4 kmh SE 8.0 mph12.9 kmh 30.09 in1019.0 mb - 0.00 in0.0 mm 0.00 in0.0 mm
07:00 PM 86.7°F30.4°C 76.6°F24.8°C 72% 5.5 mph SSE8.9 kmh SSE 8.0 mph12.9 kmh 30.09 in1019.0 mb - 0.00 in0.0 mm 0.00 in0.0 mm
07:10 PM 86.2°F30.1°C 76.1°F24.5°C 72% 4.0 mph S6.4 kmh S 7.0 mph11.3 kmh 30.09 in1019.0 mb - 0.00 in0.0 mm 0.00 in0.0 mm
07:20 PM 85.8°F29.9°C 76.1°F24.5°C 73% 3.6 mph ESE5.8 kmh ESE 7.0 mph11.3 kmh 30.09 in1019.0 mb - 0.00 in0.0 mm 0.00 in0.0 mm
07:30 PM 85.6°F29.8°C 75.9°F24.4°C 73% 2.8 mph S4.5 kmh S 6.0 mph9.7 kmh 30.09 in1019.0 mb - 0.00 in0.0 mm 0.00 in0.0 mm
07:40 PM 85.4°F29.7°C 76.2°F24.6°C 74% 4.0 mph SSE6.4 kmh SSE 7.0 mph11.3 kmh 30.09 in1019.0 mb - 0.00 in0.0 mm 0.00 in0.0 mm
07:50 PM 85.3°F29.6°C 76.5°F24.7°C 75% 4.8 mph SE7.7 kmh SE 8.0 mph12.9 kmh 30.09 in1019.0 mb - 0.00 in0.0 mm 0.00 in0.0 mm
08:00 PM 84.9°F29.4°C 76.5°F24.7°C 76% 4.2 mph SE6.8 kmh SE 8.0 mph12.9 kmh 30.09 in1019.0 mb - 0.00 in0.0 mm 0.00 in0.0 mm
08:10 PM 84.6°F29.2°C 76.6°F24.8°C 77% 2.9 mph S4.7 kmh S 5.0 mph8.0 kmh 30.09 in1019.0 mb - 0.00 in0.0 mm 0.00 in0.0 mm
08:20 PM 84.3°F29.1°C 76.7°F24.8°C 78% 3.9 mph SSE6.3 kmh SSE 6.0 mph9.7 kmh 30.09 in1019.0 mb - 0.00 in0.0 mm 0.00 in0.0 mm
08:30 PM 84.0°F28.9°C 76.8°F24.9°C 79% 3.5 mph SE5.6 kmh SE 8.0 mph12.9 kmh 30.09 in1019.0 mb - 0.00 in0.0 mm 0.00 in0.0 mm
08:40 PM 83.8°F28.8°C 76.6°F24.8°C 79% 3.2 mph S5.1 kmh S 6.0 mph9.7 kmh 30.09 in1019.0 mb - 0.00 in0.0 mm 0.00 in0.0 mm
08:50 PM 83.7°F28.7°C 76.5°F24.7°C 79% 4.4 mph SE7.1 kmh SE 6.0 mph9.7 kmh 30.08 in1018.6 mb - 0.00 in0.0 mm 0.00 in0.0 mm
09:00 PM 83.4°F28.6°C 76.2°F24.6°C 79% 3.6 mph S5.8 kmh S 5.0 mph8.0 kmh 30.09 in1019.0 mb - 0.00 in0.0 mm 0.00 in0.0 mm
09:10 PM 83.4°F28.6°C 76.2°F24.6°C 79% 4.1 mph S6.6 kmh S 5.0 mph8.0 kmh 30.09 in1019.0 mb - 0.00 in0.0 mm 0.00 in0.0 mm
09:20 PM 83.3°F28.5°C 76.1°F24.5°C 79% 3.3 mph SE5.3 kmh SE 7.0 mph11.3 kmh 30.10 in1019.3 mb - 0.00 in0.0 mm 0.00 in0.0 mm
09:30 PM 83.2°F28.4°C 76.0°F24.4°C 79% 3.4 mph SSE5.5 kmh SSE 5.0 mph8.0 kmh 30.11 in1019.6 mb - 0.00 in0.0 mm 0.00 in0.0 mm
09:40 PM 83.0°F28.3°C 75.8°F24.3°C 79% 5.4 mph SE8.7 kmh SE 8.0 mph12.9 kmh 30.11 in1019.6 mb - 0.00 in0.0 mm 0.00 in0.0 mm
09:50 PM 83.1°F28.4°C 75.6°F24.2°C 78% 2.1 mph SSE3.4 kmh SSE 7.0 mph11.3 kmh 30.11 in1019.6 mb - 0.00 in0.0 mm 0.00 in0.0 mm
10:00 PM 83.0°F28.3°C 75.4°F24.1°C 78% 2.5 mph S4.0 kmh S 5.0 mph8.0 kmh 30.11 in1019.6 mb - 0.00 in0.0 mm 0.00 in0.0 mm
10:10 PM 82.8°F28.2°C 75.2°F24.0°C 78% 1.1 mph S1.8 kmh S 2.0 mph3.2 kmh 30.12 in1020.0 mb - 0.00 in0.0 mm 0.00 in0.0 mm
10:20 PM 82.5°F28.1°C 75.4°F24.1°C 79% 2.1 mph S3.4 kmh S 3.0 mph4.8 kmh 30.13 in1020.3 mb - 0.00 in0.0 mm 0.00 in0.0 mm
10:30 PM 82.4°F28.0°C 75.3°F24.1°C 79% 0.1 mph S0.2 kmh S -- 30.14 in1020.7 mb - 0.00 in0.0 mm 0.00 in0.0 mm
10:40 PM 82.3°F27.9°C 75.1°F23.9°C 79% 0.5 mph SSW0.8 kmh SSW 1.0 mph1.6 kmh 30.15 in1021.0 mb - 0.00 in0.0 mm 0.00 in0.0 mm
10:50 PM 80.8°F27.1°C 73.6°F23.1°C 79% 9.2 mph WNW14.8 kmh WNW 19.6 mph31.5 kmh 30.20 in1022.7 mb - 0.00 in0.0 mm 0.00 in0.0 mm
11:00 PM 76.7°F24.8°C 64.9°F18.3°C 67% 13.8 mph NW22.2 kmh NW 28.8 mph46.3 kmh 30.20 in1022.7 mb - 0.00 in0.0 mm 0.00 in0.0 mm
11:10 PM 74.5°F23.6°C 66.8°F19.3°C 77% 9.2 mph NW14.8 kmh NW 18.4 mph29.6 kmh 30.21 in1023.0 mb - 0.00 in0.0 mm 0.00 in0.0 mm
11:20 PM 72.4°F22.4°C 67.3°F19.6°C 84% 8.1 mph NW13.0 kmh NW 11.5 mph18.5 kmh 30.22 in1023.4 mb - 0.02 in0.5 mm 0.02 in0.5 mm
11:30 PM 71.5°F21.9°C 67.1°F19.5°C 86% 4.6 mph NW7.4 kmh NW 6.9 mph11.1 kmh 30.22 in1023.4 mb - 0.05 in1.3 mm 0.07 in1.8 mm
11:40 PM 70.9°F21.6°C 66.9°F19.4°C 87% Calm Calm -- 30.21 in1023.0 mb - 0.05 in1.3 mm 0.11 in2.8 mm
11:50 PM 71.0°F21.7°C 67.3°F19.6°C 88% 3.5 mph SE5.6 kmh SE 4.6 mph7.4 kmh 30.20 in1022.7 mb - 0.01 in0.3 mm 0.12 in3.0 mm